Stations météo

réclame
Mon MeteoGroup
Pajares/Valgrande, Espagne (8031): Température de l'air & dewpoint: 12.08.2018 02:00:00 - 18.08.2018 02:00:00 (CEST)Pajares/Valgrande, Espagne (8031): Vitesse du vent & gusts: 12.08.2018 02:00:00 - 18.08.2018 02:00:00 (CEST)Pajares/Valgrande, Espagne (8031): Direction du vent: 12.08.2018 02:00:00 - 18.08.2018 02:00:00 (CEST)Pajares/Valgrande, Espagne (8031): Quantités de précipitations: 12.08.2018 02:00:00 - 18.08.2018 02:00:00 (CEST)
Date & Time tt [°C] td [°C] ff [km/h] ff [knt] fx [km/h] fx [knt] dd rr [mm]
18.08.2018 02:00:00 7,4 6,4 4 2 11 6 WNW -
18.08.2018 01:00:00 7,7 6,7 5 3 16 9 W 0,0
18.08.2018 00:00:00 8,3 7,3 7 4 16 8 NW 0,0
17.08.2018 23:00:00 8,3 7,3 6 3 16 8 W 0,0
17.08.2018 22:00:00 8,4 7,3 4 2 18 10 W 0,0
17.08.2018 21:00:00 8,7 7,6 8 4 16 9 WNW 0,0
17.08.2018 20:00:00 9,1 8,0 7 4 19 11 NNW -
17.08.2018 19:00:00 9,1 8,0 10 5 23 12 NW 0,7
17.08.2018 18:00:00 9,4 8,4 13 7 22 12 NW 0,1
17.08.2018 17:00:00 9,7 8,7 13 7 27 15 NW 0,0
17.08.2018 16:00:00 9,8 8,8 13 7 24 13 NW 0,0
17.08.2018 15:00:00 9,8 8,8 11 6 22 12 NW 0,5
17.08.2018 14:00:00 9,5 8,4 10 6 25 13 NW -
17.08.2018 13:00:00 9,5 8,4 8 5 25 13 NW 1,6
17.08.2018 12:00:00 9,6 8,5 13 7 27 15 NW 2,4
17.08.2018 11:00:00 9,8 8,8 6 3 18 10 NW 1,6
17.08.2018 10:00:00 9,6 8,5 10 5 24 13 NW 0,8
17.08.2018 09:00:00 9,5 8,4 9 5 23 12 NNW 1,1
17.08.2018 08:00:00 9,5 8,4 9 5 23 12 NNW -
17.08.2018 07:00:00 9,9 8,8 11 6 24 13 NNW 1,9
17.08.2018 06:00:00 10,2 9,2 11 6 25 14 NW 1,9
17.08.2018 05:00:00 10,3 9,2 10 5 22 12 NW 1,6
17.08.2018 04:00:00 10,1 9,0 8 5 18 10 NW 0,9
17.08.2018 03:00:00 10,1 9,0 11 6 20 11 NW 0,6
17.08.2018 02:00:00 10,1 9,0 10 5 24 13 NW -
17.08.2018 01:00:00 10,2 9,2 14 8 28 15 NW 0,0
17.08.2018 00:00:00 10,4 9,3 16 8 31 17 NW 0,2
16.08.2018 23:00:00 10,6 9,6 16 9 32 18 NW 0,1
16.08.2018 22:00:00 10,9 9,8 15 8 29 16 NW 0,1
16.08.2018 21:00:00 11,1 10,0 15 8 31 17 NW 0,1
16.08.2018 20:00:00 - - - - - - - -
16.08.2018 19:00:00 12,1 10,9 11 6 27 14 NW 0,0
16.08.2018 18:00:00 12,6 11,2 13 7 26 14 NW 0,0
16.08.2018 17:00:00 13,7 11,4 8 4 18 10 NW 0,0
16.08.2018 16:00:00 14,2 10,8 10 6 22 12 NW 0,0
16.08.2018 15:00:00 15,4 11,0 8 4 15 8 NW 0,0
16.08.2018 14:00:00 14,2 10,8 6 4 14 7 NNW -
16.08.2018 13:00:00 13,6 11,3 5 3 11 6 NW 0,0
16.08.2018 12:00:00 12,4 11,0 6 3 15 8 NW 0,0
16.08.2018 11:00:00 12,6 11,0 6 4 12 6 NW 0,0
16.08.2018 10:00:00 12,3 10,8 5 3 9 5 WNW 0,0
16.08.2018 09:00:00 11,9 9,9 3 2 6 3 ESE 0,0
16.08.2018 08:00:00 10,3 6,2 3 2 8 4 NW -
16.08.2018 07:00:00 12,6 3,2 5 3 14 8 SSW 0,0
16.08.2018 06:00:00 12,9 3,6 10 5 12 7 SSW 0,0
16.08.2018 05:00:00 13,5 2,1 10 5 14 7 SSW 0,0
16.08.2018 04:00:00 12,1 2,3 4 2 14 8 SSW 0,0
16.08.2018 03:00:00 13,2 2,1 10 6 14 7 SSW 0,0
16.08.2018 02:00:00 14,3 -1,0 10 5 15 8 SSW -
16.08.2018 01:00:00 14,5 -0,7 11 6 16 9 SSW 0,0
16.08.2018 00:00:00 14,0 1,9 12 6 14 8 SSW 0,0
15.08.2018 23:00:00 13,8 8,3 8 4 11 6 SSW 0,0
15.08.2018 22:00:00 13,6 7,4 6 3 10 5 SSW 0,0
15.08.2018 21:00:00 15,1 12,0 4 2 7 4 SSW 0,0
15.08.2018 20:00:00 18,7 13,8 2 1 10 5 W -
15.08.2018 19:00:00 19,0 13,0 6 3 15 8 NW 0,0
15.08.2018 18:00:00 19,6 11,9 6 3 14 7 NNW 0,0
15.08.2018 17:00:00 20,0 12,0 7 4 14 8 NW 0,0
15.08.2018 16:00:00 20,4 9,9 7 4 14 7 NW 0,0
15.08.2018 15:00:00 20,5 8,8 4 2 11 6 WNW 0,0
15.08.2018 14:00:00 20,7 3,0 5 3 10 5 WNW -
15.08.2018 13:00:00 21,7 1,9 4 2 19 10 N 0,0
15.08.2018 12:00:00 21,5 -3,0 9 5 22 12 S 0,0
15.08.2018 11:00:00 20,6 -2,0 7 4 29 16 SE 0,0
15.08.2018 10:00:00 18,0 -3,6 16 9 23 12 S 0,0
15.08.2018 09:00:00 16,6 -3,6 8 4 20 11 SSE 0,0
15.08.2018 08:00:00 13,4 -4,5 12 7 18 10 S -
15.08.2018 07:00:00 10,6 -5,7 13 7 15 8 SSW 0,0
15.08.2018 06:00:00 10,2 -3,6 9 5 14 7 SSW 0,0
15.08.2018 05:00:00 10,4 -1,0 6 3 10 5 SSW 0,0
15.08.2018 04:00:00 11,6 1,5 1 0 11 6 SSW 0,0
15.08.2018 03:00:00 12,0 3,8 4 2 13 7 SW 0,0
15.08.2018 02:00:00 10,5 6,2 4 2 9 5 SSW -
15.08.2018 01:00:00 11,3 8,1 5 3 9 5 SSW 0,0
15.08.2018 00:00:00 10,6 8,4 4 2 9 5 SSW 0,0
14.08.2018 23:00:00 11,9 9,4 5 3 7 4 SSW 0,0
14.08.2018 22:00:00 13,7 11,8 2 1 10 5 WNW 0,0
14.08.2018 21:00:00 14,2 12,1 4 2 10 5 W 0,0
14.08.2018 20:00:00 15,3 12,2 3 2 9 5 NW -
14.08.2018 19:00:00 16,2 11,6 6 3 14 8 NW 0,0
14.08.2018 18:00:00 17,1 11,3 6 3 16 9 NNW 0,0
14.08.2018 17:00:00 18,1 11,4 6 3 17 9 NW 0,0
14.08.2018 16:00:00 17,1 10,4 7 4 17 9 NW 0,0
14.08.2018 15:00:00 16,4 9,6 8 4 14 8 NNW 0,0
14.08.2018 14:00:00 16,2 8,4 7 4 13 7 NW -
14.08.2018 13:00:00 15,8 8,5 5 3 13 7 NW 0,0
14.08.2018 12:00:00 15,1 6,8 3 2 11 6 NW 0,0
14.08.2018 11:00:00 12,2 9,0 6 3 11 6 N 0,0
14.08.2018 10:00:00 11,2 7,7 4 2 10 5 N 0,0
14.08.2018 09:00:00 10,4 8,5 4 2 6 4 ESE 0,0
14.08.2018 08:00:00 7,5 5,9 3 1 12 6 NNW -
14.08.2018 07:00:00 7,4 6,4 1 0 7 4 N 0,0
14.08.2018 06:00:00 8,8 7,7 3 1 11 6 WNW 0,0
14.08.2018 05:00:00 8,3 7,3 0 0 5 3 N 0,0
14.08.2018 04:00:00 8,9 7,8 1 1 9 5 W 0,0
14.08.2018 03:00:00 9,2 8,1 5 3 11 6 NW 0,0
14.08.2018 02:00:00 9,7 8,7 7 4 17 9 NW -
14.08.2018 01:00:00 10,0 8,9 6 4 14 7 NW 0,0
14.08.2018 00:00:00 10,3 9,2 7 4 19 10 NW 0,0
13.08.2018 23:00:00 10,7 9,6 14 7 23 12 NW 0,0
13.08.2018 22:00:00 11,3 10,2 9 5 22 12 NW 0,0
13.08.2018 21:00:00 11,5 10,4 11 6 22 12 NW 0,0
13.08.2018 20:00:00 11,8 10,5 11 6 20 11 NW -
13.08.2018 19:00:00 12,2 10,8 12 7 26 14 NW 0,0
13.08.2018 18:00:00 12,8 10,5 8 4 17 9 NW 0,0
13.08.2018 17:00:00 13,9 10,6 4 2 12 6 NW 0,0
13.08.2018 16:00:00 13,9 10,2 6 4 16 9 NW 0,0
13.08.2018 15:00:00 15,0 10,0 6 4 15 8 NW 0,0
13.08.2018 14:00:00 14,5 9,3 7 4 16 9 NW -
13.08.2018 13:00:00 14,8 8,9 6 3 12 6 NW 0,0
13.08.2018 12:00:00 14,1 8,7 5 3 10 5 NW 0,0
13.08.2018 11:00:00 15,2 10,2 4 2 10 5 N 0,0
13.08.2018 10:00:00 12,1 10,3 2 1 7 4 NW 0,0
13.08.2018 09:00:00 10,2 8,7 1 1 9 5 N 0,0
13.08.2018 08:00:00 8,6 6,5 0 0 8 4 W -
13.08.2018 07:00:00 9,0 5,9 1 1 12 7 SSW 0,0
13.08.2018 06:00:00 8,7 5,3 8 4 14 8 SSW 0,0
13.08.2018 05:00:00 9,4 6,8 8 5 12 6 SSW 0,0
13.08.2018 04:00:00 11,5 9,6 2 1 4 2 NNE 0,0
13.08.2018 03:00:00 11,7 9,8 0 0 8 4 S 0,0
13.08.2018 02:00:00 10,5 8,1 6 4 11 6 SW -
13.08.2018 01:00:00 12,4 10,6 4 2 15 8 WSW 0,0
13.08.2018 00:00:00 13,1 11,4 1 1 9 5 WSW 0,0
12.08.2018 23:00:00 13,6 12,1 5 3 11 6 WNW 0,0
12.08.2018 22:00:00 14,2 12,7 6 3 12 7 NW 0,0
12.08.2018 21:00:00 14,7 13,1 1 1 9 5 NNW 0,0
12.08.2018 20:00:00 14,9 13,1 5 3 16 9 NW -
12.08.2018 19:00:00 15,6 13,5 8 4 17 9 NW 0,0
12.08.2018 18:00:00 17,0 13,8 6 3 11 6 NW 0,0
12.08.2018 17:00:00 19,3 12,1 6 3 15 8 WNW 0,0
12.08.2018 16:00:00 21,2 7,7 6 3 26 14 S 0,0
12.08.2018 15:00:00 19,5 7,3 10 5 26 14 SSW 0,0
12.08.2018 14:00:00 20,2 5,8 10 6 25 14 SSW -
12.08.2018 13:00:00 20,9 6,1 6 3 21 11 SW 0,0
12.08.2018 12:00:00 20,1 4,1 12 6 33 18 S 0,0
12.08.2018 11:00:00 19,3 3,4 17 9 26 14 S 0,0
12.08.2018 10:00:00 18,4 4,1 13 7 26 14 S 0,0
12.08.2018 09:00:00 16,9 5,1 14 8 21 12 S 0,0
12.08.2018 08:00:00 14,8 5,6 16 9 22 12 S -
12.08.2018 07:00:00 14,5 6,5 17 9 22 12 S 0,0
12.08.2018 06:00:00 15,0 7,0 15 8 19 11 S 0,0
12.08.2018 05:00:00 14,2 6,8 13 7 19 10 SSW 0,0
12.08.2018 04:00:00 15,2 6,5 11 6 17 9 S 0,0
12.08.2018 03:00:00 15,2 7,4 9 5 13 7 SW 0,0
12.08.2018 02:00:00 14,0 7,7 1 1 14 8 SW -

tt = Température de l'air
td = dewpoint
ff = Vitesse du vent
fx = gusts
dd = Direction du vent
rr = Quantités de précipitations

stations d'obs. à proximité